Terminal Aerodrome Forecast
Issued by NWS Sterling, VA

Current Version | Previous Version | Graphics & Text | Print | Product List | Glossary On
Versions: 1 2 3 4 5 6 7 8 9 10 11 12 13 14 15 16 17 18 19 20 21 22 23
000
FTUS41 KLWX 172100 AAA
TAFDCA
TAF AMD
KDCA 172102Z 1721/1818 23010KT 6SM -SHRA OVC040
     FM172110 25010G16KT P6SM BKN045
     FM172200 25007KT P6SM SCT040
     FM180000 VRB03KT P6SM BKN250=

USA.gov is the U.S. government's official web portal to all federal, state and local government web resources and services.